Time;durP1;ratioP1;P1;durP2;ratioP2;P2;SDS_P1;SDS_P2;PMS_P1;PMS_P2;Temp;Humidity;BMP_temperature;BMP_pressure;BME280_temperature;BME280_humidity;BME280_pressure;Samples;Min_cycle;Max_cycle;Signal;HPM_P1;HPM_P2
2023/06/08 00:01:58;;;;;;;7.15;2.65;;;14.10;99.90;;;;;;5033806;28;20033;-72
2023/06/08 00:04:30;;;;;;;11.40;3.17;;;14.10;99.90;;;;;;5059671;28;20029;-72
2023/06/08 00:06:59;;;;;;;13.40;3.28;;;14.00;99.90;;;;;;5033325;28;20037;-71
2023/06/08 00:09:25;;;;;;;8.75;3.22;;;14.00;99.90;;;;;;5051652;28;20057;-72
2023/06/08 00:11:53;;;;;;;19.42;3.60;;;14.00;99.90;;;;;;5051627;28;20033;-72
2023/06/08 00:14:19;;;;;;;9.52;3.30;;;14.00;99.90;;;;;;5051506;28;20420;-72
2023/06/08 00:16:47;;;;;;;13.38;3.80;;;14.00;99.90;;;;;;5051398;28;20037;-72
2023/06/08 00:19:14;;;;;;;14.38;3.08;;;13.90;99.90;;;;;;5033773;28;20040;-72
2023/06/08 00:21:43;;;;;;;7.57;3.00;;;13.90;99.90;;;;;;5033267;28;20119;-73
2023/06/08 00:24:09;;;;;;;9.30;2.83;;;13.80;99.90;;;;;;5033806;28;20106;-72
2023/06/08 00:26:35;;;;;;;13.80;3.63;;;13.80;99.90;;;;;;5017744;28;20041;-72
2023/06/08 00:29:00;;;;;;;7.05;2.85;;;13.80;99.90;;;;;;5033244;28;20048;-71
2023/06/08 00:31:26;;;;;;;11.90;3.08;;;13.80;99.90;;;;;;5050999;28;20049;-72
2023/06/08 00:33:52;;;;;;;12.85;3.25;;;13.70;99.90;;;;;;5050499;28;20041;-72
2023/06/08 00:36:17;;;;;;;6.13;3.00;;;13.70;99.90;;;;;;5033066;28;20508;-73
2023/06/08 00:38:43;;;;;;;9.68;2.78;;;13.70;99.90;;;;;;5033135;28;20017;-73
2023/06/08 00:41:09;;;;;;;11.20;2.83;;;13.70;99.90;;;;;;5032460;28;20037;-72
2023/06/08 00:43:35;;;;;;;8.38;3.22;;;13.70;99.90;;;;;;5033331;28;20048;-72
2023/06/08 00:46:02;;;;;;;14.10;3.08;;;13.60;99.90;;;;;;5032470;28;20032;-72
2023/06/08 00:48:31;;;;;;;9.95;3.30;;;13.60;99.90;;;;;;5033297;28;20413;-73
2023/06/08 00:50:58;;;;;;;11.55;3.40;;;13.60;99.90;;;;;;5050282;28;20104;-73
2023/06/08 00:53:25;;;;;;;8.00;3.30;;;13.50;99.90;;;;;;5034108;28;20036;-72
2023/06/08 00:55:51;;;;;;;9.68;2.65;;;13.50;99.90;;;;;;5051368;28;20436;-73
2023/06/08 00:58:18;;;;;;;12.30;3.38;;;13.50;99.90;;;;;;5033910;28;20108;-73
2023/06/08 01:00:46;;;;;;;11.45;2.90;;;13.40;99.90;;;;;;5033629;28;20033;-72
2023/06/08 01:03:15;;;;;;;8.15;3.13;;;13.40;99.90;;;;;;5035215;28;20456;-73
2023/06/08 01:05:44;;;;;;;13.70;3.00;;;13.40;99.90;;;;;;5035669;28;20091;-73
2023/06/08 01:08:25;;;;;;;7.30;3.00;;;13.40;99.90;;;;;;5032699;28;20060;-73
2023/06/08 01:11:12;;;;;;;9.75;3.05;;;13.40;99.90;;;;;;5032434;28;20080;-73
2023/06/08 01:14:13;;;;;;;10.77;3.90;;;13.40;99.90;;;;;;5029415;28;20124;-70
2023/06/08 01:16:44;;;;;;;6.03;2.85;;;13.30;99.90;;;;;;5029513;28;20104;-71
2023/06/08 01:19:18;;;;;;;12.32;3.22;;;13.20;99.90;;;;;;5050520;28;20036;-72
2023/06/08 01:22:02;;;;;;;11.45;2.83;;;13.20;99.90;;;;;;5032842;28;20167;-72
2023/06/08 01:24:30;;;;;;;13.68;3.97;;;13.20;99.90;;;;;;5032792;28;20701;-73
2023/06/08 01:26:57;;;;;;;9.30;3.42;;;13.10;99.90;;;;;;5028282;28;20494;-73
2023/06/08 01:29:25;;;;;;;11.48;3.15;;;13.10;99.90;;;;;;5034091;28;20497;-71
2023/06/08 01:31:51;;;;;;;8.52;3.20;;;13.00;99.90;;;;;;5033122;28;20025;-74
2023/06/08 01:34:17;;;;;;;14.05;3.05;;;13.00;99.90;;;;;;5050672;28;20094;-74
2023/06/08 01:37:06;;;;;;;13.40;2.90;;;13.00;99.90;;;;;;5032021;28;20397;-74
2023/06/08 01:39:45;;;;;;;13.13;3.65;;;12.90;99.90;;;;;;5028196;28;20381;-72
2023/06/08 01:42:13;;;;;;;9.40;4.35;;;12.90;99.90;;;;;;5029274;28;20400;-73
2023/06/08 01:44:45;;;;;;;7.75;3.03;;;12.90;99.90;;;;;;5032439;28;20099;-74
2023/06/08 01:47:13;;;;;;;10.48;3.08;;;12.90;99.90;;;;;;5031569;28;20148;-75
2023/06/08 01:49:40;;;;;;;11.93;3.40;;;12.80;99.90;;;;;;5032364;28;20029;-74
2023/06/08 01:52:06;;;;;;;15.35;3.88;;;12.70;99.90;;;;;;5032547;28;20559;-72
2023/06/08 01:54:31;;;;;;;13.02;3.80;;;12.80;99.90;;;;;;5046064;28;20431;-71
2023/06/08 01:56:57;;;;;;;8.30;3.67;;;12.70;99.90;;;;;;5036043;28;20193;-72
2023/06/08 01:59:23;;;;;;;12.13;3.72;;;12.70;99.90;;;;;;5031854;28;20730;-72
2023/06/08 02:01:48;;;;;;;8.45;3.25;;;12.70;99.90;;;;;;5049266;28;20033;-73
2023/06/08 02:04:14;;;;;;;11.95;3.63;;;12.70;99.90;;;;;;5034006;28;20033;-72
2023/06/08 02:06:39;;;;;;;14.50;4.25;;;12.60;99.90;;;;;;5031486;28;20409;-72
2023/06/08 02:09:05;;;;;;;13.65;4.63;;;12.60;99.90;;;;;;5049221;28;20509;-72
2023/06/08 02:11:31;;;;;;;14.77;3.80;;;12.60;99.90;;;;;;5049423;28;20033;-72
2023/06/08 02:13:56;;;;;;;12.82;3.40;;;12.50;99.90;;;;;;5030839;28;20134;-72
2023/06/08 02:16:22;;;;;;;12.25;3.50;;;12.40;99.90;;;;;;5031357;28;20033;-73
2023/06/08 02:18:50;;;;;;;11.20;4.28;;;12.40;99.90;;;;;;5029598;28;20148;-73
2023/06/08 02:21:15;;;;;;;17.08;5.00;;;12.40;99.90;;;;;;5031113;28;20536;-72
2023/06/08 02:23:41;;;;;;;12.88;3.88;;;12.40;99.90;;;;;;5049416;28;20171;-71
2023/06/08 02:26:08;;;;;;;10.02;3.92;;;12.40;99.90;;;;;;5030879;28;20025;-72
2023/06/08 02:28:34;;;;;;;18.00;4.05;;;12.30;99.90;;;;;;5031261;28;20389;-72
2023/06/08 02:31:00;;;;;;;11.90;4.00;;;12.30;99.90;;;;;;5030377;28;20071;-72
2023/06/08 02:33:26;;;;;;;15.07;3.92;;;12.30;99.90;;;;;;5030668;28;20037;-72
2023/06/08 02:35:51;;;;;;;11.80;4.78;;;12.30;99.90;;;;;;5030586;28;20041;-72
2023/06/08 02:38:17;;;;;;;13.57;5.00;;;12.30;99.90;;;;;;5048822;28;20048;-72
2023/06/08 02:40:42;;;;;;;15.43;4.72;;;12.20;99.90;;;;;;5030873;28;20036;-72
2023/06/08 02:43:08;;;;;;;9.68;4.13;;;12.20;99.90;;;;;;5029914;28;20029;-72
2023/06/08 02:45:34;;;;;;;18.25;5.22;;;12.10;99.90;;;;;;5048895;28;20094;-72
2023/06/08 02:48:00;;;;;;;10.68;3.92;;;12.10;99.90;;;;;;5030261;28;20112;-71
2023/06/08 02:50:26;;;;;;;11.07;4.63;;;12.20;99.90;;;;;;5030972;28;20120;-72
2023/06/08 02:52:52;;;;;;;8.70;3.95;;;12.10;99.90;;;;;;5029815;28;20112;-72
2023/06/08 02:55:17;;;;;;;9.00;3.55;;;12.10;99.90;;;;;;5048822;28;20029;-72
2023/06/08 02:57:43;;;;;;;16.98;4.93;;;12.10;99.90;;;;;;5030691;28;20556;-71
2023/06/08 03:00:12;;;;;;;13.73;4.97;;;12.10;99.90;;;;;;5029973;28;20497;-72
2023/06/08 03:02:38;;;;;;;15.25;4.88;;;12.10;99.90;;;;;;5030457;28;20041;-72
2023/06/08 03:05:04;;;;;;;12.52;5.10;;;12.00;99.90;;;;;;5049336;28;20040;-72
2023/06/08 03:07:33;;;;;;;14.60;5.10;;;12.10;99.90;;;;;;5048164;28;20036;-72
2023/06/08 03:09:59;;;;;;;11.57;4.65;;;12.00;99.90;;;;;;5029716;28;20029;-72
2023/06/08 03:12:25;;;;;;;17.83;5.88;;;12.00;99.90;;;;;;5035291;28;20037;-72
2023/06/08 03:14:50;;;;;;;11.57;4.70;;;12.00;99.90;;;;;;5029135;28;20491;-73
2023/06/08 03:17:17;;;;;;;13.57;4.47;;;12.00;99.90;;;;;;5030016;28;20047;-72
2023/06/08 03:19:43;;;;;;;12.60;4.60;;;12.00;99.90;;;;;;5034201;28;20398;-72
2023/06/08 03:22:09;;;;;;;10.27;5.07;;;12.00;99.90;;;;;;5029549;28;20116;-73
2023/06/08 03:24:35;;;;;;;16.30;5.18;;;12.00;99.90;;;;;;5030516;28;20129;-73
2023/06/08 03:27:02;;;;;;;11.55;4.15;;;11.90;99.90;;;;;;5047696;28;20456;-72
2023/06/08 03:29:30;;;;;;;14.13;5.30;;;11.90;99.90;;;;;;5029612;28;20055;-73
2023/06/08 03:31:56;;;;;;;12.25;4.28;;;12.00;99.90;;;;;;5029627;28;20041;-74
2023/06/08 03:34:25;;;;;;;11.10;4.75;;;12.00;99.90;;;;;;5048168;28;20040;-72
2023/06/08 03:36:52;;;;;;;13.98;5.53;;;11.90;99.90;;;;;;5029549;28;20564;-73
2023/06/08 03:39:17;;;;;;;10.88;4.78;;;11.90;99.90;;;;;;5030024;28;20075;-72
2023/06/08 03:41:43;;;;;;;13.43;5.25;;;11.90;99.90;;;;;;5030166;28;20511;-70
2023/06/08 03:44:09;;;;;;;11.75;4.70;;;11.90;99.90;;;;;;5029220;28;20656;-72
2023/06/08 03:46:35;;;;;;;12.95;4.95;;;12.00;99.90;;;;;;5030326;28;20136;-72
2023/06/08 03:49:00;;;;;;;7.50;4.22;;;12.00;99.90;;;;;;5029423;28;20044;-72
2023/06/08 03:51:26;;;;;;;10.00;4.82;;;12.00;99.90;;;;;;5030172;28;20105;-73
2023/06/08 03:53:51;;;;;;;12.73;5.07;;;12.00;99.90;;;;;;5029795;28;20037;-73
2023/06/08 03:56:17;;;;;;;13.60;4.68;;;12.00;99.90;;;;;;5048354;28;20029;-73
2023/06/08 03:58:44;;;;;;;11.63;5.05;;;12.10;99.90;;;;;;5029788;28;20409;-72
2023/06/08 04:01:13;;;;;;;13.68;5.38;;;12.20;99.90;;;;;;5029552;28;20370;-72
2023/06/08 04:03:41;;;;;;;13.85;4.45;;;12.20;99.90;;;;;;5035070;28;20021;-73
2023/06/08 04:06:08;;;;;;;12.60;4.95;;;12.20;99.90;;;;;;5029559;28;20037;-72
2023/06/08 04:08:44;;;;;;;16.40;4.78;;;12.30;99.90;;;;;;5030488;28;20036;-72
2023/06/08 04:11:10;;;;;;;16.58;4.53;;;12.30;99.90;;;;;;5030312;28;20033;-72
2023/06/08 04:13:38;;;;;;;10.00;4.97;;;12.30;99.90;;;;;;5049787;28;20041;-73
2023/06/08 04:16:07;;;;;;;9.10;4.72;;;12.40;99.90;;;;;;5049341;28;20071;-72
2023/06/08 04:18:32;;;;;;;15.98;4.47;;;12.40;99.90;;;;;;5030348;28;20039;-73
2023/06/08 04:20:58;;;;;;;11.98;4.28;;;12.40;99.90;;;;;;5029615;28;20127;-73
2023/06/08 04:23:24;;;;;;;17.60;4.80;;;12.50;99.90;;;;;;5030370;28;20472;-72
2023/06/08 04:25:49;;;;;;;10.88;4.03;;;12.50;99.90;;;;;;5029131;28;20044;-71
2023/06/08 04:28:15;;;;;;;9.27;4.88;;;12.60;99.90;;;;;;5029529;28;20087;-73
2023/06/08 04:30:41;;;;;;;18.70;4.70;;;12.60;99.90;;;;;;5029510;28;20434;-73
2023/06/08 04:33:07;;;;;;;14.32;4.55;;;12.60;99.90;;;;;;5029108;28;20052;-72
2023/06/08 04:35:33;;;;;;;16.20;4.85;;;12.60;99.90;;;;;;5031040;28;20045;-72
2023/06/08 04:37:58;;;;;;;12.05;4.63;;;12.60;99.90;;;;;;5025623;28;20038;-72
2023/06/08 04:40:25;;;;;;;13.88;4.65;;;12.50;99.90;;;;;;5028838;28;20040;-72
2023/06/08 04:42:51;;;;;;;13.27;5.60;;;12.60;99.90;;;;;;5048772;28;20037;-71
2023/06/08 04:45:18;;;;;;;12.93;4.78;;;12.60;99.90;;;;;;5034339;28;20038;-75
2023/06/08 04:47:45;;;;;;;11.68;5.43;;;12.70;99.90;;;;;;5037492;28;20037;-72
2023/06/08 04:50:10;;;;;;;11.35;4.82;;;12.70;99.90;;;;;;5029217;28;20033;-72
2023/06/08 04:52:40;;;;;;;13.35;5.35;;;12.80;99.90;;;;;;5051293;28;20051;-74
2023/06/08 04:55:13;;;;;;;12.88;4.40;;;12.80;99.90;;;;;;5050267;28;20036;-72
2023/06/08 04:57:42;;;;;;;11.50;4.80;;;12.80;99.90;;;;;;5052398;28;20071;-71
2023/06/08 05:00:09;;;;;;;12.35;4.65;;;12.90;99.90;;;;;;5024998;28;20663;-72
2023/06/08 05:02:37;;;;;;;9.30;4.30;;;12.90;99.90;;;;;;5030684;28;20075;-71
2023/06/08 05:05:03;;;;;;;14.77;6.18;;;13.00;99.90;;;;;;5048129;28;20028;-72
2023/06/08 05:07:29;;;;;;;9.35;4.10;;;13.00;99.90;;;;;;5040540;28;20122;-72
2023/06/08 05:09:56;;;;;;;11.65;4.95;;;13.00;99.90;;;;;;5048089;28;20493;-71
2023/06/08 05:12:22;;;;;;;12.27;4.45;;;13.10;99.90;;;;;;5026987;28;20120;-71
2023/06/08 05:14:47;;;;;;;12.05;4.88;;;13.20;99.90;;;;;;5029593;28;20060;-73
2023/06/08 05:17:13;;;;;;;8.30;4.88;;;13.30;99.90;;;;;;5049337;28;20029;-71
2023/06/08 05:19:39;;;;;;;8.23;4.22;;;13.30;99.90;;;;;;5030984;28;20485;-72
2023/06/08 05:22:04;;;;;;;16.42;4.72;;;13.30;99.90;;;;;;5041831;28;20056;-72
2023/06/08 05:24:30;;;;;;;9.77;4.65;;;13.30;99.90;;;;;;5030355;28;20048;-72
2023/06/08 05:26:56;;;;;;;15.15;4.05;;;13.30;99.90;;;;;;5025319;28;20037;-71
2023/06/08 05:29:21;;;;;;;11.88;4.30;;;13.30;99.90;;;;;;5048197;28;20144;-73
2023/06/08 05:31:49;;;;;;;11.85;4.38;;;13.40;99.90;;;;;;5041577;28;20037;-74
2023/06/08 05:34:14;;;;;;;13.95;4.28;;;13.50;99.90;;;;;;5042603;28;20472;-74
2023/06/08 05:36:40;;;;;;;12.23;4.00;;;13.60;99.90;;;;;;5024431;28;20033;-71
2023/06/08 05:39:05;;;;;;;10.30;3.78;;;13.60;99.90;;;;;;5028461;28;20049;-72
2023/06/08 05:41:31;;;;;;;11.07;3.72;;;13.70;99.90;;;;;;5020797;28;20041;-72
2023/06/08 05:43:57;;;;;;;11.40;4.47;;;13.80;99.90;;;;;;5026688;28;20044;-72
2023/06/08 05:46:22;;;;;;;17.92;4.65;;;13.80;99.90;;;;;;5046880;28;20072;-72
2023/06/08 05:48:48;;;;;;;6.40;3.40;;;13.80;99.90;;;;;;5020301;28;20029;-73
2023/06/08 05:51:14;;;;;;;11.55;4.00;;;13.90;99.90;;;;;;5027344;28;20033;-73
2023/06/08 05:53:39;;;;;;;8.20;3.53;;;14.10;99.90;;;;;;5027503;28;20212;-74
2023/06/08 05:56:05;;;;;;;12.15;3.90;;;14.20;99.90;;;;;;5026073;28;20079;-73
2023/06/08 05:58:30;;;;;;;7.82;3.58;;;14.60;99.90;;;;;;5027140;28;20094;-74
2023/06/08 06:00:58;;;;;;;11.75;3.88;;;14.80;99.90;;;;;;5028433;28;20175;-73
2023/06/08 06:03:24;;;;;;;7.20;2.58;;;14.90;99.90;;;;;;5026149;28;20037;-73
2023/06/08 06:05:50;;;;;;;8.57;2.53;;;15.10;99.90;;;;;;5045558;28;20031;-73
2023/06/08 06:08:16;;;;;;;10.52;3.50;;;15.30;99.90;;;;;;5030244;28;20504;-73
2023/06/08 06:10:41;;;;;;;9.82;3.10;;;15.60;99.90;;;;;;5023177;28;20786;-73
2023/06/08 06:13:07;;;;;;;8.50;3.38;;;15.90;99.90;;;;;;5017676;28;20029;-73
2023/06/08 06:15:33;;;;;;;9.07;2.70;;;16.20;99.90;;;;;;5026667;28;20045;-73
2023/06/08 06:17:59;;;;;;;8.50;2.60;;;16.40;99.90;;;;;;5047075;28;20033;-71
2023/06/08 06:20:27;;;;;;;8.63;3.25;;;16.70;99.90;;;;;;5021701;28;20118;-72
2023/06/08 06:22:52;;;;;;;7.30;2.72;;;17.00;99.90;;;;;;5029141;28;20094;-73
2023/06/08 06:25:18;;;;;;;7.57;3.10;;;17.10;99.90;;;;;;5030095;28;20717;-73
2023/06/08 06:27:44;;;;;;;10.93;2.40;;;17.30;99.90;;;;;;5046730;28;20405;-73
2023/06/08 06:30:10;;;;;;;9.30;2.63;;;17.30;99.90;;;;;;5025837;28;20053;-72
2023/06/08 06:32:36;;;;;;;5.93;2.38;;;17.30;99.90;;;;;;5021732;28;20124;-74
2023/06/08 06:35:01;;;;;;;10.77;2.42;;;17.20;99.90;;;;;;5027001;28;20040;-73
2023/06/08 06:37:34;;;;;;;4.88;2.10;;;17.40;99.90;;;;;;5026383;28;20059;-72
2023/06/08 06:40:06;;;;;;;7.38;2.53;;;17.80;99.90;;;;;;5029243;28;20040;-73
2023/06/08 06:42:32;;;;;;;7.38;2.15;;;18.30;99.90;;;;;;5029105;28;20044;-72
2023/06/08 06:44:58;;;;;;;10.40;2.65;;;18.50;99.90;;;;;;5047154;28;20033;-72
2023/06/08 06:47:24;;;;;;;6.45;1.90;;;18.60;99.90;;;;;;5029166;28;20420;-72
2023/06/08 06:49:50;;;;;;;8.05;2.40;;;18.40;99.90;;;;;;5046831;28;20029;-72
2023/06/08 06:52:16;;;;;;;5.95;2.08;;;18.10;99.90;;;;;;5024647;28;20055;-71
2023/06/08 06:54:41;;;;;;;6.35;2.20;;;18.10;99.90;;;;;;5025484;28;20076;-71
2023/06/08 06:57:07;;;;;;;6.03;2.67;;;17.90;99.90;;;;;;5040699;28;20393;-70
2023/06/08 06:59:34;;;;;;;5.38;2.22;;;18.00;99.90;;;;;;5047313;28;20055;-72
2023/06/08 07:01:59;;;;;;;12.00;2.95;;;17.90;99.90;;;;;;5028465;28;20141;-71
2023/06/08 07:04:25;;;;;;;4.68;2.17;;;17.60;99.90;;;;;;5029121;28;20539;-72
2023/06/08 07:06:52;;;;;;;12.32;3.08;;;17.50;99.90;;;;;;5046870;28;20040;-71
2023/06/08 07:09:21;;;;;;;9.85;2.08;;;17.40;99.90;;;;;;5043615;28;20059;-71
2023/06/08 07:11:47;;;;;;;7.47;2.33;;;17.60;99.90;;;;;;5039284;28;20029;-72
2023/06/08 07:14:13;;;;;;;5.22;2.28;;;17.60;99.90;;;;;;5045425;28;20065;-72
2023/06/08 07:16:38;;;;;;;11.25;2.83;;;17.50;99.90;;;;;;5028989;28;20496;-72
2023/06/08 07:19:04;;;;;;;8.10;2.88;;;17.60;99.90;;;;;;5029579;28;20068;-72
2023/06/08 07:21:30;;;;;;;8.48;2.40;;;17.60;99.90;;;;;;5029519;28;20095;-72
2023/06/08 07:23:57;;;;;;;10.02;3.05;;;17.50;99.90;;;;;;5047856;28;20497;-72
2023/06/08 07:26:23;;;;;;;6.68;2.10;;;17.40;99.90;;;;;;5030580;28;20037;-73
2023/06/08 07:28:53;;;;;;;7.78;2.78;;;17.20;99.90;;;;;;5030310;28;20079;-71
2023/06/08 07:31:19;;;;;;;10.48;3.13;;;17.30;99.90;;;;;;5022373;28;20116;-72
2023/06/08 07:33:45;;;;;;;9.15;2.90;;;17.80;99.90;;;;;;5027980;28;20120;-71
2023/06/08 07:36:10;;;;;;;6.00;2.40;;;18.90;99.90;;;;;;5021931;28;20029;-72
2023/06/08 07:38:36;;;;;;;10.05;2.35;;;20.30;99.40;;;;;;5042530;28;20111;-74
2023/06/08 07:41:01;;;;;;;8.32;2.90;;;21.10;97.50;;;;;;5026943;28;20040;-73
2023/06/08 07:43:27;;;;;;;9.00;2.53;;;21.30;97.10;;;;;;5020699;28;20042;-73
2023/06/08 07:45:52;;;;;;;7.38;2.53;;;21.00;96.80;;;;;;5043938;28;20031;-73
2023/06/08 07:48:18;;;;;;;5.80;2.10;;;20.90;97.10;;;;;;5043348;28;20068;-73
2023/06/08 07:50:43;;;;;;;5.95;2.33;;;20.70;97.10;;;;;;5040957;28;20063;-73
2023/06/08 07:53:11;;;;;;;13.27;2.72;;;20.40;97.40;;;;;;5024558;28;20037;-73
2023/06/08 07:55:37;;;;;;;6.63;2.58;;;20.60;97.90;;;;;;5027228;28;20508;-73
2023/06/08 07:58:02;;;;;;;8.82;2.72;;;21.60;96.90;;;;;;5045023;28;20160;-73
2023/06/08 08:00:31;;;;;;;8.25;2.72;;;22.70;94.60;;;;;;5039292;28;20033;-71
2023/06/08 08:02:56;;;;;;;7.85;2.60;;;23.40;93.60;;;;;;5039779;28;20033;-72
2023/06/08 08:05:22;;;;;;;9.30;3.25;;;23.90;92.00;;;;;;5031258;28;20044;-72
2023/06/08 08:07:48;;;;;;;8.07;3.13;;;24.30;91.50;;;;;;5024583;28;20033;-71
2023/06/08 08:10:13;;;;;;;8.48;3.17;;;24.60;91.20;;;;;;5023685;28;20036;-71
2023/06/08 08:12:39;;;;;;;11.57;3.30;;;24.60;90.50;;;;;;5024946;28;20047;-73
2023/06/08 08:15:05;;;;;;;11.70;2.80;;;24.30;90.70;;;;;;5024380;28;20099;-72
2023/06/08 08:17:31;;;;;;;9.45;2.42;;;23.90;91.10;;;;;;5047400;28;20047;-74
2023/06/08 08:19:56;;;;;;;8.65;2.60;;;23.50;91.10;;;;;;5026632;28;20040;-72
2023/06/08 08:22:22;;;;;;;4.82;2.00;;;23.20;91.40;;;;;;5040983;28;20112;-73
2023/06/08 08:24:48;;;;;;;7.38;2.53;;;23.00;91.50;;;;;;5030283;28;20080;-72
2023/06/08 08:27:13;;;;;;;9.32;2.50;;;22.80;91.40;;;;;;5030329;28;20032;-72
2023/06/08 08:29:39;;;;;;;5.35;2.17;;;22.60;91.80;;;;;;5048206;28;20036;-72
2023/06/08 08:32:06;;;;;;;8.90;2.45;;;22.30;92.40;;;;;;5026267;28;20044;-72
2023/06/08 08:34:31;;;;;;;7.00;2.42;;;22.30;92.80;;;;;;5049731;28;20045;-72
2023/06/08 08:36:57;;;;;;;6.05;2.05;;;22.20;93.10;;;;;;5048793;28;20448;-71
2023/06/08 08:39:23;;;;;;;8.23;2.70;;;22.10;93.00;;;;;;5045254;28;20033;-73
2023/06/08 08:41:56;;;;;;;6.93;2.20;;;22.00;93.30;;;;;;5028260;28;20032;-74
2023/06/08 08:44:22;;;;;;;10.02;2.00;;;21.90;93.10;;;;;;5028949;28;20059;-72
2023/06/08 08:46:49;;;;;;;6.43;2.03;;;21.90;93.30;;;;;;5040027;28;20465;-75
2023/06/08 08:49:15;;;;;;;7.75;2.10;;;21.90;93.40;;;;;;5024917;28;20430;-73
2023/06/08 08:51:52;;;;;;;12.10;2.75;;;21.80;93.40;;;;;;5030426;28;20112;-73
2023/06/08 08:54:25;;;;;;;7.15;2.28;;;21.70;93.90;;;;;;5047365;28;20405;-72
2023/06/08 08:56:55;;;;;;;7.55;2.72;;;21.90;94.20;;;;;;5023626;28;20076;-72
2023/06/08 08:59:23;;;;;;;9.45;2.70;;;22.00;93.60;;;;;;5045882;28;20047;-73
2023/06/08 09:01:48;;;;;;;5.00;1.83;;;22.00;93.50;;;;;;5026415;28;20401;-73
2023/06/08 09:04:14;;;;;;;5.97;1.95;;;22.10;93.80;;;;;;5023672;28;20033;-72
2023/06/08 09:06:47;;;;;;;6.63;2.40;;;22.10;93.30;;;;;;5031517;28;20044;-72
2023/06/08 09:09:12;;;;;;;11.35;2.40;;;22.20;93.50;;;;;;5046209;28;20033;-72
2023/06/08 09:11:58;;;;;;;5.80;2.47;;;22.20;93.70;;;;;;5041708;28;20404;-73
2023/06/08 09:14:24;;;;;;;5.65;2.53;;;22.20;93.40;;;;;;5028102;28;20049;-71
2023/06/08 09:16:50;;;;;;;9.50;2.53;;;22.30;93.20;;;;;;5029678;28;20045;-72
2023/06/08 09:19:15;;;;;;;7.63;2.50;;;22.50;93.70;;;;;;5024914;28;20036;-71
2023/06/08 09:21:43;;;;;;;7.80;2.50;;;22.50;93.10;;;;;;5029290;28;20025;-72
2023/06/08 09:24:14;;;;;;;5.75;2.30;;;22.70;93.70;;;;;;5022389;28;20059;-71
2023/06/08 09:26:58;;;;;;;5.68;2.67;;;22.70;93.30;;;;;;5049301;28;20124;-71
2023/06/08 09:29:40;;;;;;;6.45;2.50;;;22.70;93.30;;;;;;5030187;28;20045;-72
2023/06/08 09:32:07;;;;;;;9.30;2.60;;;22.60;93.30;;;;;;5025128;28;20052;-70
2023/06/08 09:34:58;;;;;;;9.73;3.00;;;22.50;93.20;;;;;;5046398;28;20400;-72
2023/06/08 09:37:30;;;;;;;7.43;2.58;;;22.60;93.20;;;;;;5045936;28;20404;-72
2023/06/08 09:39:56;;;;;;;7.15;3.13;;;22.80;92.80;;;;;;5048361;28;20053;-72
2023/06/08 09:42:22;;;;;;;4.80;2.63;;;22.90;92.70;;;;;;5025122;28;20136;-70
2023/06/08 09:44:48;;;;;;;8.98;3.22;;;23.10;92.70;;;;;;5027227;28;20040;-72
2023/06/08 09:47:26;;;;;;;9.40;3.05;;;23.10;93.20;;;;;;5045556;28;20158;-72
2023/06/08 09:49:53;;;;;;;6.40;2.47;;;23.20;92.80;;;;;;5020771;28;20147;-72
2023/06/08 09:52:23;;;;;;;5.90;2.50;;;23.30;93.20;;;;;;5025447;28;20045;-73
2023/06/08 09:54:50;;;;;;;6.13;2.93;;;23.40;93.30;;;;;;5033130;28;20087;-73
2023/06/08 09:57:17;;;;;;;9.30;2.75;;;23.50;92.30;;;;;;5046911;28;20792;-71
2023/06/08 09:59:47;;;;;;;8.73;3.30;;;23.60;92.50;;;;;;5049643;28;20036;-71
2023/06/08 10:02:21;;;;;;;8.93;3.42;;;23.70;92.30;;;;;;5025087;28;20104;-70
2023/06/08 10:04:53;;;;;;;7.53;2.50;;;23.80;92.40;;;;;;5032803;28;20584;-71
2023/06/08 10:07:29;;;;;;;9.52;3.55;;;23.70;91.70;;;;;;5031013;28;20068;-72
2023/06/08 10:10:10;;;;;;;10.90;4.00;;;23.70;92.20;;;;;;5029648;28;20755;-72
2023/06/08 10:12:36;;;;;;;8.68;3.80;;;23.70;91.80;;;;;;5026820;28;20041;-72
2023/06/08 10:15:02;;;;;;;8.60;2.40;;;23.70;91.80;;;;;;5047937;28;20041;-71
2023/06/08 10:17:29;;;;;;;9.45;2.92;;;23.60;92.40;;;;;;5031468;28;20040;-71
2023/06/08 10:19:56;;;;;;;6.10;2.63;;;23.70;92.20;;;;;;5030914;28;20033;-71
2023/06/08 10:22:23;;;;;;;7.07;2.60;;;23.60;91.70;;;;;;5049394;28;20049;-71
2023/06/08 10:24:49;;;;;;;7.07;2.60;;;23.60;92.00;;;;;;5031386;28;20402;-72
2023/06/08 10:27:34;;;;;;;9.68;2.92;;;23.80;91.50;;;;;;5050413;28;20029;-72
2023/06/08 10:30:03;;;;;;;11.50;2.95;;;23.90;91.70;;;;;;5039704;28;20037;-73
2023/06/08 10:32:42;;;;;;;9.02;3.05;;;23.90;91.80;;;;;;5043073;28;20040;-74
2023/06/08 10:35:10;;;;;;;6.20;2.50;;;24.00;91.50;;;;;;5035249;28;20037;-71
2023/06/08 10:37:37;;;;;;;7.10;2.50;;;24.10;91.70;;;;;;5031751;28;20045;-71
2023/06/08 10:40:08;;;;;;;8.30;2.80;;;24.30;91.10;;;;;;5030543;28;20071;-71
2023/06/08 10:42:34;;;;;;;7.35;2.72;;;24.40;90.60;;;;;;5045037;28;20045;-73
2023/06/08 10:45:03;;;;;;;6.80;3.03;;;24.50;90.90;;;;;;5047762;28;20033;-73
2023/06/08 10:47:31;;;;;;;6.00;2.47;;;24.40;90.60;;;;;;5048729;28;20056;-73
2023/06/08 10:50:08;;;;;;;5.82;2.03;;;24.50;90.30;;;;;;5030447;28;20455;-73
2023/06/08 10:52:46;;;;;;;10.93;2.85;;;24.90;90.60;;;;;;5040047;28;20052;-71
2023/06/08 10:55:13;;;;;;;6.25;2.20;;;25.00;89.30;;;;;;5048420;28;20036;-71
2023/06/08 10:57:55;;;;;;;7.60;2.72;;;25.20;90.30;;;;;;5027870;28;20832;-71
2023/06/08 11:00:28;;;;;;;8.45;2.67;;;25.40;87.90;;;;;;5023287;28;20040;-71
2023/06/08 11:03:05;;;;;;;8.25;2.60;;;25.30;88.90;;;;;;5045072;28;20041;-72
2023/06/08 11:05:35;;;;;;;5.22;2.22;;;25.20;88.30;;;;;;5042323;28;20052;-72
2023/06/08 11:08:01;;;;;;;;;;;25.20;88.90;;;;;;5044455;28;20056;-73
2023/06/08 11:10:28;;;;;;;5.80;2.47;;;25.20;89.20;;;;;;5024741;28;20002;-70
2023/06/08 11:12:54;;;;;;;9.65;2.53;;;25.30;88.50;;;;;;5023987;28;20039;-72
2023/06/08 11:15:20;;;;;;;9.75;2.80;;;25.30;88.50;;;;;;5043176;28;20048;-72
2023/06/08 11:17:58;;;;;;;6.00;1.92;;;25.20;87.60;;;;;;5027968;28;20045;-70
2023/06/08 11:20:24;;;;;;;5.80;1.88;;;25.10;88.70;;;;;;5024209;28;20115;-72
2023/06/08 11:22:50;;;;;;;5.13;2.05;;;25.20;89.50;;;;;;5024250;28;20048;-72
2023/06/08 11:25:23;;;;;;;5.13;2.25;;;25.20;88.70;;;;;;5024874;28;20029;-72
2023/06/08 11:27:53;;;;;;;7.50;2.35;;;25.30;88.00;;;;;;5023170;28;20060;-72
2023/06/08 11:30:28;;;;;;;10.20;2.60;;;25.40;87.60;;;;;;5026446;28;20045;-71
2023/06/08 11:32:55;;;;;;;9.15;2.60;;;25.30;89.60;;;;;;5042680;28;20033;-73
2023/06/08 11:35:21;;;;;;;5.88;2.40;;;25.00;90.60;;;;;;5037523;28;20044;-72
2023/06/08 11:37:55;;;;;;;11.40;2.92;;;25.00;91.40;;;;;;5029982;28;20850;-72
2023/06/08 11:40:21;;;;;;;5.18;1.85;;;25.00;91.50;;;;;;5044016;28;20037;-71
2023/06/08 11:42:47;;;;;;;6.63;2.72;;;25.20;90.10;;;;;;5026300;28;20076;-71
2023/06/08 11:45:14;;;;;;;7.18;2.38;;;25.30;89.60;;;;;;5028091;28;20077;-71
2023/06/08 11:47:41;;;;;;;9.82;2.58;;;25.30;90.80;;;;;;5043132;28;20030;-71
2023/06/08 11:50:07;;;;;;;6.72;2.00;;;25.20;92.30;;;;;;5046275;28;20033;-71
2023/06/08 11:52:35;;;;;;;8.30;2.53;;;25.10;91.80;;;;;;5021201;28;20037;-72
2023/06/08 11:55:13;;;;;;;5.25;1.85;;;25.10;91.90;;;;;;5046249;28;20025;-72
2023/06/08 11:57:43;;;;;;;11.50;2.80;;;25.20;91.30;;;;;;5028833;28;20037;-72
2023/06/08 12:00:11;;;;;;;;;;;25.20;90.00;;;;;;5029551;28;20052;-71
2023/06/08 12:02:38;;;;;;;8.52;2.00;;;25.10;90.70;;;;;;5044915;28;20631;-72
2023/06/08 12:05:06;;;;;;;6.90;2.67;;;25.20;91.30;;;;;;5050996;28;20040;-72
2023/06/08 12:07:33;;;;;;;8.52;2.45;;;25.10;90.60;;;;;;5049502;28;20037;-73
2023/06/08 12:10:02;;;;;;;8.43;2.30;;;25.00;91.20;;;;;;5044485;28;20037;-72
2023/06/08 12:12:29;;;;;;;6.03;1.83;;;25.10;90.50;;;;;;5047777;28;20048;-72
2023/06/08 12:14:56;;;;;;;5.93;2.15;;;25.10;90.00;;;;;;5028219;28;20037;-72
2023/06/08 12:17:30;;;;;;;5.20;1.83;;;25.00;90.40;;;;;;5028066;28;20033;-71
2023/06/08 12:19:56;;;;;;;5.15;1.88;;;25.00;90.70;;;;;;5050114;28;20045;-71
2023/06/08 12:22:22;;;;;;;8.05;2.13;;;25.00;92.10;;;;;;5045857;28;20036;-73
2023/06/08 12:24:47;;;;;;;5.72;2.53;;;25.00;92.80;;;;;;5029028;28;20064;-71
2023/06/08 12:27:13;;;;;;;8.40;2.03;;;24.90;93.30;;;;;;5046127;28;20037;-72
2023/06/08 12:29:41;;;;;;;10.38;2.58;;;24.80;93.20;;;;;;5050904;28;20033;-72
2023/06/08 12:32:07;;;;;;;6.53;2.35;;;24.90;93.10;;;;;;5048680;28;20025;-71
2023/06/08 12:34:33;;;;;;;10.18;2.03;;;24.90;93.20;;;;;;5046497;28;20508;-71
2023/06/08 12:36:59;;;;;;;5.18;2.63;;;24.90;93.40;;;;;;5050396;28;20504;-72
2023/06/08 12:39:25;;;;;;;7.70;3.10;;;24.90;93.40;;;;;;5048843;28;20505;-71
2023/06/08 12:41:51;;;;;;;9.70;2.67;;;24.90;93.20;;;;;;5029206;28;20120;-71
2023/06/08 12:44:17;;;;;;;7.05;2.33;;;24.90;92.90;;;;;;5029235;28;20040;-72
2023/06/08 12:46:43;;;;;;;10.35;2.53;;;24.80;93.30;;;;;;5029684;28;20083;-71